This is the latest recevied weather packets stored in our database for station/object IR3AS. If no packets are shown the sender has not sent any weather packets the latest 10 day(s).
| Time | Temp. | Humidity | Pressure | Rain* | Wind** | Luminosity | Snow |
|---|---|---|---|---|---|---|---|
| 1788006595 | 25° C | 45% | 868.4 hPa | 0 mm | - | - | - |
| 1788006295 | 23.89° C | 50% | 868.2 hPa | 0 mm | - | - | - |
| 1788005995 | 23.33° C | 50% | 868.5 hPa | 0 mm | - | - | - |
| 1788005696 | 23.89° C | 48% | 868.3 hPa | 0 mm | - | - | - |
| 1788005395 | 22.78° C | 53% | 868.5 hPa | 0 mm | - | - | - |
| 1788005095 | 22.22° C | 50% | 868.6 hPa | 0 mm | - | - | - |
| 1788004795 | 21.67° C | 58% | 868.3 hPa | 0 mm | - | - | - |
| 1788004496 | 20.56° C | 62% | 868.1 hPa | 0 mm | - | - | - |
| 1788004195 | 20° C | 64% | 868.4 hPa | 0 mm | - | - | - |
| 1788003895 | 18.89° C | 67% | 868 hPa | 0 mm | - | - | - |
| 1788003595 | 17.78° C | 68% | 868.2 hPa | 0 mm | - | - | - |
| 1788003296 | 17.78° C | 67% | 868 hPa | 0 mm | - | - | - |
| 1788002995 | 17.22° C | 70% | 868.4 hPa | 0 mm | - | - | - |
| 1788002695 | 17.22° C | 70% | 868.6 hPa | 0 mm | - | - | - |
| 1788002395 | 17.22° C | 70% | 868.3 hPa | 0 mm | - | - | - |
| 1788002096 | 16.67° C | 72% | 868.3 hPa | 0 mm | - | - | - |
| 1788001795 | 16.67° C | 72% | 868.4 hPa | 0 mm | - | - | - |
| 1788001495 | 16.67° C | 71% | 868.1 hPa | 0 mm | - | - | - |
| 1788001195 | 16.67° C | 72% | 868.2 hPa | 0 mm | - | - | - |
| 1788000895 | 16.67° C | 72% | 868.1 hPa | 0 mm | - | - | - |
| 1788000595 | 16.67° C | 74% | 868.4 hPa | 0 mm | - | - | - |
| 1788000295 | 16.11° C | 75% | 868.4 hPa | 0 mm | - | - | - |
| 1787999995 | 15.56° C | 76% | 868.7 hPa | 0 mm | - | - | - |
| 1787999696 | 15.56° C | 76% | 868.5 hPa | 0 mm | - | - | - |
| 1787999395 | 15.56° C | 76% | 868.8 hPa | 0 mm | - | - | - |
* Rain latest hour (hover to see other rain measurements)
** Current wind speed in m/s (hover to see current wind gust speed)